Time;durP1;ratioP1;P1;durP2;ratioP2;P2;SDS_P1;SDS_P2;PMS_P1;PMS_P2;Temp;Humidity;BMP_temperature;BMP_pressure;BME280_temperature;BME280_humidity;BME280_pressure;Samples;Min_cycle;Max_cycle;Signal;HPM_P1;HPM_P2
2021/06/10 05:19:28;;;;;;;21.75;17.02;;;17.10;99.90;;;;;;4954107;29;19925;-71
2021/06/10 05:21:53;;;;;;;22.55;16.88;;;17.10;99.90;;;;;;4965527;28;20031;-72
2021/06/10 05:24:19;;;;;;;17.58;15.13;;;17.20;99.90;;;;;;4971711;28;20418;-71
2021/06/10 05:26:45;;;;;;;19.33;16.20;;;17.30;99.90;;;;;;4940589;29;20367;-72
2021/06/10 06:00:21;;;;;;;24.65;20.85;;;18.20;99.90;;;;;;5543459;23;20053;-72
2021/06/10 06:02:47;;;;;;;25.80;20.17;;;18.20;99.90;;;;;;5015098;28;20040;-72
2021/06/10 06:05:12;;;;;;;29.15;22.40;;;18.20;99.90;;;;;;5011656;28;20049;-73
2021/06/10 06:07:38;;;;;;;28.38;21.83;;;18.30;99.90;;;;;;5013284;28;20017;-72
2021/06/10 06:10:05;;;;;;;26.00;21.80;;;18.30;99.90;;;;;;5027222;28;20030;-72
2021/06/10 06:12:32;;;;;;;24.58;20.35;;;18.30;99.90;;;;;;5013653;28;20029;-72
2021/06/10 06:14:58;;;;;;;25.63;19.75;;;18.40;99.90;;;;;;5018696;28;20068;-73
2021/06/10 06:17:23;;;;;;;25.15;20.10;;;18.50;99.90;;;;;;5011565;28;20034;-73
2021/06/10 06:19:49;;;;;;;24.90;19.50;;;18.60;99.90;;;;;;4994221;28;20040;-74
2021/06/10 06:22:15;;;;;;;25.55;19.25;;;18.60;99.90;;;;;;5000219;28;20026;-73
2021/06/10 06:24:40;;;;;;;23.88;18.65;;;18.70;99.90;;;;;;5022256;28;20032;-74
2021/06/10 06:33:19;;;;;;;21.02;17.00;;;19.10;99.90;;;;;;4931551;29;20038;-74
2021/06/10 06:35:45;;;;;;;22.50;17.08;;;19.20;99.90;;;;;;4932858;29;20044;-73
2021/06/10 06:38:12;;;;;;;21.50;17.55;;;19.20;99.90;;;;;;4943715;29;20027;-73
2021/06/10 06:40:38;;;;;;;22.20;17.55;;;19.40;99.90;;;;;;4947427;29;20106;-73
2021/06/10 06:43:06;;;;;;;22.20;16.23;;;19.40;99.90;;;;;;4931792;29;20032;-73
2021/06/10 06:45:33;;;;;;;22.00;17.33;;;19.50;99.90;;;;;;4935856;29;20100;-73
2021/06/10 09:04:41;;;;;;;15.15;11.15;;;23.80;97.30;;;;;;4213838;26;20042;-72
2021/06/10 09:07:09;;;;;;;15.00;11.80;;;23.80;97.30;;;;;;5014206;23;20446;-71
2021/06/10 09:09:42;;;;;;;14.23;11.23;;;23.70;97.10;;;;;;5053347;28;20029;-72
2021/06/10 09:12:11;;;;;;;13.40;11.05;;;23.70;96.60;;;;;;5039376;28;20520;-72
2021/06/10 09:15:00;;;;;;;13.05;11.63;;;23.70;96.50;;;;;;5022962;28;20030;-72
2021/06/10 09:35:36;;;;;;;15.07;10.48;;;24.30;94.50;;;;;;5003186;22;20045;-71
2021/06/10 10:09:08;;;;;;;12.43;9.65;;;25.10;93.00;;;;;;4818023;22;20265;-71
2021/06/10 10:11:34;;;;;;;11.20;9.07;;;24.90;93.70;;;;;;5053247;28;20391;-72
2021/06/10 10:14:03;;;;;;;11.98;9.43;;;25.10;92.60;;;;;;5034948;28;20021;-72
2021/06/10 10:16:31;;;;;;;11.35;9.00;;;25.20;92.50;;;;;;5052692;28;20057;-71
2021/06/10 10:18:58;;;;;;;9.98;8.05;;;25.30;91.40;;;;;;5052333;28;20060;-72
2021/06/10 10:21:28;;;;;;;10.50;9.10;;;25.20;90.60;;;;;;5052485;28;20021;-72
2021/06/10 10:23:57;;;;;;;;;;;25.30;94.00;;;;;;5053725;28;20028;-72
2021/06/10 10:26:22;;;;;;;11.73;9.95;;;25.40;91.50;;;;;;5052552;28;20016;-72
2021/06/10 11:59:29;;;;;;;6.05;4.20;;;26.10;79.80;;;;;;4955006;28;20047;-71
2021/06/10 12:02:02;;;;;;;5.90;3.90;;;26.10;79.60;;;;;;4956955;29;20030;-71
2021/06/10 12:04:33;;;;;;;8.02;4.57;;;26.10;79.60;;;;;;4956494;29;20118;-71
2021/06/10 12:12:10;;;;;;;8.82;5.32;;;26.10;89.30;;;;;;5451965;23;20107;-71
2021/06/10 12:14:39;;;;;;;8.00;5.43;;;26.10;89.00;;;;;;5055022;28;20017;-71
2021/06/10 12:22:15;;;;;;;5.85;3.55;;;26.10;86.50;;;;;;5062813;23;20385;-71
2021/06/10 12:24:44;;;;;;;9.98;3.50;;;26.10;87.40;;;;;;5054709;28;20075;-71
2021/06/10 12:27:17;;;;;;;16.02;4.53;;;26.00;87.00;;;;;;5049716;28;20036;-71
2021/06/10 12:29:52;;;;;;;6.10;3.30;;;26.20;89.70;;;;;;5031128;28;20021;-71
2021/06/10 12:32:30;;;;;;;8.85;3.03;;;26.50;85.60;;;;;;5034114;28;20029;-71
2021/06/10 12:34:57;;;;;;;8.88;2.88;;;27.10;89.30;;;;;;5044307;28;20039;-71
2021/06/10 12:37:23;;;;;;;5.32;2.90;;;27.60;85.00;;;;;;5030069;23;21244;-71
2021/06/10 12:39:48;;;;;;;9.35;2.75;;;28.00;85.40;;;;;;5015934;28;20034;-75
2021/06/10 12:42:14;;;;;;;6.50;2.40;;;28.30;80.60;;;;;;5016677;28;20057;-72
2021/06/10 12:44:40;;;;;;;10.07;3.05;;;28.30;77.70;;;;;;5034324;28;20017;-73
2021/06/10 12:47:06;;;;;;;5.80;2.40;;;28.40;81.80;;;;;;5034426;28;20034;-72
2021/06/10 12:49:43;;;;;;;3.38;1.92;;;28.80;76.50;;;;;;5033299;28;20053;-72
2021/06/10 12:52:11;;;;;;;5.50;1.60;;;29.40;77.40;;;;;;5034435;28;20030;-72
2021/06/10 12:54:37;;;;;;;3.35;1.90;;;30.00;79.50;;;;;;5034011;28;20108;-73
2021/06/10 13:13:10;;;;;;;2.17;1.50;;;32.80;63.20;;;;;;5012418;28;20057;-72
2021/06/10 13:15:38;;;;;;;2.90;1.70;;;33.60;61.30;;;;;;4996303;28;20044;-72
2021/06/10 13:31:13;;;;;;;4.15;2.25;;;36.40;56.80;;;;;;4917274;22;20533;-72
2021/06/10 13:33:38;;;;;;;4.30;2.20;;;37.00;50.60;;;;;;5053297;28;20027;-71
2021/06/10 13:36:11;;;;;;;4.80;2.78;;;35.30;49.10;;;;;;5035543;28;20025;-70
2021/06/10 13:38:37;;;;;;;7.10;3.13;;;32.90;52.20;;;;;;5068846;22;20041;-71
2021/06/10 13:41:05;;;;;;;4.40;2.47;;;31.60;55.00;;;;;;5035094;28;20032;-72
2021/06/10 13:43:35;;;;;;;3.78;2.47;;;31.00;56.30;;;;;;5052540;28;20021;-72
2021/06/10 13:46:02;;;;;;;8.07;3.55;;;30.50;58.90;;;;;;5053417;28;20049;-72
2021/06/10 14:04:08;;;;;;;5.65;3.70;;;29.40;64.30;;;;;;5942717;22;20024;-72
2021/06/10 14:06:34;;;;;;;6.75;4.28;;;29.60;64.10;;;;;;5031205;28;20381;-71
2021/06/10 14:22:09;;;;;;;6.78;4.78;;;29.60;63.90;;;;;;4839106;22;20057;-70
2021/06/10 14:24:38;;;;;;;5.85;4.10;;;30.60;61.90;;;;;;5052315;28;20179;-70
2021/06/10 14:32:42;;;;;;;5.43;3.95;;;33.00;57.90;;;;;;5025239;22;20056;-71
2021/06/10 14:35:09;;;;;;;7.18;4.00;;;33.20;59.10;;;;;;5034395;28;20025;-71
2021/06/10 15:31:57;;;;;;;5.40;3.70;;;36.00;49.30;;;;;;4194964;22;20037;-70
2021/06/10 15:34:23;;;;;;;8.15;3.78;;;36.00;49.20;;;;;;5051617;28;20078;-70
2021/06/10 15:36:48;;;;;;;5.45;3.92;;;35.80;49.80;;;;;;5051488;28;20387;-70
2021/06/10 16:34:25;;;;;;;7.85;5.40;;;33.10;53.60;;;;;;4389366;22;20037;-70
2021/06/10 16:39:26;;;;;;;8.40;5.55;;;33.60;53.20;;;;;;5241481;22;20052;-70
2021/06/10 16:41:54;;;;;;;9.32;5.18;;;34.20;53.50;;;;;;5054423;28;20404;-70
2021/06/10 16:44:20;;;;;;;7.32;5.20;;;34.60;53.50;;;;;;5036451;28;20017;-70
2021/06/10 16:46:45;;;;;;;8.43;5.30;;;34.70;52.70;;;;;;5036447;28;20016;-70
2021/06/10 16:59:32;;;;;;;7.32;4.90;;;34.00;54.30;;;;;;5839417;22;20052;-70
2021/06/10 17:02:11;;;;;;;8.40;5.55;;;33.90;54.20;;;;;;5053829;28;20045;-70
2021/06/10 17:04:37;;;;;;;7.88;5.30;;;33.80;54.40;;;;;;5054161;28;20032;-70
2021/06/10 17:14:48;;;;;;;7.82;5.53;;;33.10;55.20;;;;;;5309601;22;20080;-70
2021/06/10 17:35:21;;;;;;;11.10;6.38;;;29.50;62.30;;;;;;5429811;22;20388;-69
2021/06/10 17:37:47;;;;;;;12.65;6.20;;;29.40;62.70;;;;;;5053424;28;20032;-70
2021/06/10 17:40:13;;;;;;;7.40;6.40;;;29.10;63.40;;;;;;5052974;28;20017;-70
2021/06/10 17:42:44;;;;;;;7.30;5.47;;;29.10;63.60;;;;;;5053278;28;20041;-70
2021/06/10 17:45:10;;;;;;;;;;;28.80;63.70;;;;;;5053646;28;20056;-70
2021/06/10 17:55:22;;;;;;;10.80;8.88;;;27.70;67.00;;;;;;5112927;22;20511;-70
2021/06/10 18:23:41;;;;;;;8.35;5.07;;;25.20;70.00;;;;;;4216620;22;20049;-70
2021/06/10 18:26:06;;;;;;;6.20;4.75;;;25.00;71.00;;;;;;5052405;28;20581;-71
2021/06/10 18:38:53;;;;;;;8.52;4.70;;;24.70;73.20;;;;;;5040414;22;20508;-70
2021/06/10 18:41:19;;;;;;;8.18;5.00;;;24.60;73.60;;;;;;5034168;28;20025;-70
2021/06/10 18:43:44;;;;;;;6.72;4.88;;;24.50;74.70;;;;;;5052542;28;20025;-70
2021/06/10 18:46:11;;;;;;;12.25;5.35;;;24.40;76.10;;;;;;5052321;28;20025;-70
2021/06/10 18:48:37;;;;;;;6.47;4.22;;;24.30;76.50;;;;;;5105024;23;20049;-70
2021/06/10 18:51:04;;;;;;;7.35;4.75;;;24.30;76.70;;;;;;5031953;28;20328;-70
2021/06/10 18:53:30;;;;;;;7.32;4.85;;;24.30;75.30;;;;;;5030903;28;20048;-69
2021/06/10 18:55:55;;;;;;;8.30;4.35;;;24.20;75.70;;;;;;5029742;28;20476;-70
2021/06/10 18:58:21;;;;;;;7.80;4.38;;;24.20;76.00;;;;;;5015896;28;20116;-70
2021/06/10 19:00:47;;;;;;;9.02;4.45;;;24.30;75.40;;;;;;5010754;28;20160;-70
2021/06/10 19:03:12;;;;;;;7.93;4.65;;;24.10;75.60;;;;;;5010964;28;20026;-69
2021/06/10 19:05:39;;;;;;;8.48;4.57;;;24.00;77.30;;;;;;5012561;28;20026;-70
2021/06/10 19:08:05;;;;;;;6.82;4.47;;;24.00;76.80;;;;;;5012142;28;20021;-69
2021/06/10 19:10:30;;;;;;;7.63;4.57;;;23.70;77.00;;;;;;5011991;28;20500;-70
2021/06/10 19:12:56;;;;;;;6.90;4.80;;;23.70;77.40;;;;;;5012231;28;20029;-70
2021/06/10 19:15:22;;;;;;;8.10;4.65;;;23.50;79.90;;;;;;5012175;28;20022;-69
2021/06/10 19:17:47;;;;;;;7.60;4.50;;;23.40;77.80;;;;;;5031245;23;20035;-70
2021/06/10 19:20:13;;;;;;;9.45;4.90;;;23.10;78.60;;;;;;5051530;28;20029;-70
2021/06/10 19:22:38;;;;;;;7.10;4.78;;;22.90;79.50;;;;;;5051516;28;20479;-70
2021/06/10 19:25:06;;;;;;;7.85;5.13;;;22.90;79.30;;;;;;5051190;28;20357;-70
2021/06/10 19:27:32;;;;;;;7.47;5.20;;;22.90;80.00;;;;;;5050143;28;20431;-70
2021/06/10 19:29:58;;;;;;;6.55;4.82;;;22.90;81.50;;;;;;5050289;28;20438;-69
2021/06/10 19:32:35;;;;;;;6.97;5.20;;;22.80;81.40;;;;;;5051248;28;20021;-69
2021/06/10 19:35:02;;;;;;;7.60;5.32;;;22.60;82.70;;;;;;5050475;28;20025;-69
2021/06/10 19:37:28;;;;;;;25.08;11.68;;;22.70;82.80;;;;;;5032459;28;20036;-70
2021/06/10 19:39:55;;;;;;;20.15;11.25;;;22.60;84.60;;;;;;5050126;28;20025;-69
2021/06/10 19:42:21;;;;;;;52.33;24.73;;;22.40;85.60;;;;;;5055409;28;20155;-69
2021/06/10 19:44:49;;;;;;;13.57;8.25;;;22.30;85.80;;;;;;5055621;28;20488;-69
2021/06/10 19:47:15;;;;;;;9.45;6.63;;;22.30;87.00;;;;;;5037579;28;20025;-69
2021/06/10 19:49:41;;;;;;;9.73;6.18;;;22.20;87.20;;;;;;5055319;28;20529;-69
2021/06/10 19:52:09;;;;;;;8.05;6.25;;;22.00;88.20;;;;;;5055499;28;20033;-69
2021/06/10 19:54:34;;;;;;;7.53;5.65;;;21.80;88.70;;;;;;5037552;28;20021;-69
2021/06/10 19:57:00;;;;;;;6.70;5.18;;;21.80;88.70;;;;;;5037409;28;20522;-69
2021/06/10 19:59:26;;;;;;;7.90;6.13;;;21.70;89.90;;;;;;5055164;28;20028;-69
2021/06/10 20:01:52;;;;;;;10.85;6.35;;;21.60;90.30;;;;;;5037481;28;20031;-69
2021/06/10 20:04:21;;;;;;;9.40;5.80;;;21.60;90.40;;;;;;5037444;28;20021;-69
2021/06/10 20:06:48;;;;;;;8.40;6.10;;;21.50;90.70;;;;;;5055224;28;20020;-69
2021/06/10 21:01:00;;;;;;;8.30;6.15;;;19.90;95.90;;;;;;4911388;26;20455;-69
2021/06/10 21:03:26;;;;;;;9.43;6.97;;;19.80;96.10;;;;;;5017121;28;20025;-70
2021/06/10 21:05:52;;;;;;;8.43;6.68;;;19.80;96.30;;;;;;5016978;28;20025;-70
2021/06/10 21:34:11;;;;;;;8.70;6.50;;;19.20;98.10;;;;;;4864783;23;20157;-70
2021/06/10 21:36:37;;;;;;;10.55;6.20;;;19.10;98.10;;;;;;5013343;28;20030;-70
2021/06/10 21:39:04;;;;;;;11.00;7.05;;;19.10;98.20;;;;;;5012848;28;20030;-70
2021/06/10 21:41:29;;;;;;;8.60;6.43;;;19.10;98.30;;;;;;4996027;28;20117;-70
2021/06/10 21:43:55;;;;;;;8.18;6.85;;;19.00;98.50;;;;;;5013625;28;20145;-70
2021/06/10 21:46:21;;;;;;;8.90;6.38;;;19.00;98.50;;;;;;5013492;28;20014;-70
2021/06/10 21:48:46;;;;;;;10.40;7.05;;;18.90;98.50;;;;;;5011584;28;20026;-69
2021/06/10 21:51:12;;;;;;;12.30;6.82;;;18.90;98.50;;;;;;4995550;28;20132;-70
2021/06/10 21:53:37;;;;;;;9.93;6.47;;;18.80;98.70;;;;;;5013362;28;20026;-70
2021/06/10 21:56:03;;;;;;;9.50;6.40;;;18.80;98.80;;;;;;5006857;28;20022;-70
2021/06/10 21:58:29;;;;;;;13.10;6.93;;;18.70;98.80;;;;;;5184534;23;20041;-71
2021/06/10 22:00:54;;;;;;;7.80;6.18;;;18.70;98.90;;;;;;5014424;28;20083;-70
2021/06/10 22:03:20;;;;;;;10.23;6.38;;;18.70;98.90;;;;;;5032525;28;20524;-70
2021/06/10 22:05:47;;;;;;;8.35;6.80;;;18.70;98.90;;;;;;5032576;28;20041;-70
2021/06/10 22:08:15;;;;;;;10.38;6.53;;;18.70;99.10;;;;;;5032734;28;20022;-70
2021/06/10 22:10:42;;;;;;;9.48;6.53;;;18.50;99.20;;;;;;5032131;28;20033;-70
2021/06/10 22:13:13;;;;;;;9.18;6.72;;;18.50;99.40;;;;;;5032735;28;20039;-69
2021/06/10 22:15:41;;;;;;;12.77;7.72;;;18.40;99.60;;;;;;5031215;28;20492;-70
2021/06/10 22:18:08;;;;;;;8.80;6.75;;;18.30;99.70;;;;;;5022863;28;20548;-70
2021/06/10 22:20:34;;;;;;;9.35;6.78;;;18.40;99.60;;;;;;5010426;28;20109;-70
2021/06/10 22:23:00;;;;;;;9.75;7.00;;;18.40;99.50;;;;;;5011102;28;20110;-69
2021/06/10 22:25:27;;;;;;;9.10;6.85;;;18.30;99.60;;;;;;5011075;28;20065;-70
2021/06/10 22:33:25;;;;;;;8.70;6.97;;;18.20;99.90;;;;;;3737917;26;20049;-70
2021/06/10 22:35:53;;;;;;;9.25;7.00;;;18.10;99.90;;;;;;5039408;28;20034;-70
2021/06/10 22:46:05;;;;;;;9.50;6.47;;;18.00;99.90;;;;;;4693636;22;20045;-70
2021/06/10 22:48:31;;;;;;;8.65;6.22;;;17.90;99.90;;;;;;5031971;28;20029;-69
2021/06/10 22:51:00;;;;;;;8.80;6.90;;;17.80;99.90;;;;;;5031483;28;20047;-70
2021/06/10 22:53:25;;;;;;;9.25;6.93;;;17.70;99.90;;;;;;5032036;28;20025;-70
2021/06/10 22:55:54;;;;;;;9.10;7.20;;;17.70;99.90;;;;;;5032148;28;20645;-70
2021/06/10 22:58:23;;;;;;;10.15;6.80;;;17.70;99.90;;;;;;5113961;23;20576;-70
2021/06/10 23:00:51;;;;;;;9.25;7.13;;;17.70;99.90;;;;;;5051586;28;20447;-69
2021/06/10 23:03:17;;;;;;;10.40;7.05;;;17.70;99.90;;;;;;5051928;28;20095;-70
2021/06/10 23:05:44;;;;;;;8.50;6.93;;;17.60;99.90;;;;;;5051745;28;20021;-70
2021/06/10 23:26:17;;;;;;;10.35;7.05;;;17.30;99.90;;;;;;3170903;26;20125;-70
2021/06/10 23:36:28;;;;;;;11.68;7.30;;;17.10;99.90;;;;;;3061600;22;20575;-70
2021/06/10 23:59:56;;;;;;;11.23;7.22;;;16.70;99.90;;;;;;4230593;23;20057;-70
